createdAt,value
2022-11-20T00:02:57.268Z,18.00
2022-11-20T00:07:58.557Z,17.57
2022-11-20T00:12:59.852Z,15.88
2022-11-20T00:18:01.077Z,17.10
2022-11-20T00:23:02.302Z,18.33
2022-11-20T00:28:03.622Z,19.75
2022-11-20T00:33:04.851Z,17.67
2022-11-20T00:38:06.057Z,15.57
2022-11-20T00:43:07.361Z,16.75
2022-11-20T00:48:08.624Z,15.33
2022-11-20T00:53:09.859Z,16.10
2022-11-20T00:58:14.316Z,15.50
2022-11-20T01:03:16.479Z,14.52
2022-11-20T01:08:17.720Z,14.93
2022-11-20T01:13:37.981Z,14.25
2022-11-20T01:18:40.381Z,14.95
2022-11-20T01:23:42.498Z,14.67
2022-11-20T01:28:44.118Z,14.35
2022-11-20T01:33:47.461Z,15.55
2022-11-20T01:38:48.912Z,14.65
2022-11-20T01:43:50.135Z,15.70
2022-11-20T01:48:55.030Z,12.17
2022-11-20T01:53:58.053Z,11.18
2022-11-20T01:59:01.761Z,11.52
2022-11-20T02:04:03.480Z,12.23
2022-11-20T02:09:04.862Z,10.93
2022-11-20T02:14:06.278Z,10.30
2022-11-20T02:19:10.541Z,11.10
2022-11-20T02:24:14.738Z,11.65
2022-11-20T02:29:21.858Z,10.47
2022-11-20T02:34:23.349Z,10.25
2022-11-20T02:39:26.067Z,10.67
2022-11-20T02:44:27.365Z,8.70
2022-11-20T02:49:28.773Z,8.32
2022-11-20T02:54:29.995Z,10.23
2022-11-20T02:59:31.294Z,9.95
2022-11-20T03:04:32.532Z,9.30
2022-11-20T03:09:33.762Z,10.00
2022-11-20T03:14:35.396Z,8.82
2022-11-20T03:19:36.762Z,11.13
2022-11-20T03:24:37.998Z,9.68
2022-11-20T03:29:39.283Z,8.37
2022-11-20T03:34:40.498Z,9.35
2022-11-20T03:39:41.801Z,7.50
2022-11-20T03:44:43.066Z,8.32
2022-11-20T03:49:44.338Z,7.20
2022-11-20T03:54:45.626Z,8.73
2022-11-20T03:59:46.893Z,9.15
2022-11-20T04:04:48.173Z,8.93
2022-11-20T04:09:49.546Z,7.90
2022-11-20T04:14:50.778Z,7.20
2022-11-20T04:19:52.007Z,7.77
2022-11-20T04:24:53.257Z,10.35
2022-11-20T04:29:54.552Z,7.82
2022-11-20T04:34:55.825Z,7.53
2022-11-20T04:39:57.065Z,8.20
2022-11-20T04:44:58.470Z,7.90
2022-11-20T04:49:59.803Z,7.47
2022-11-20T04:55:01.140Z,7.18
2022-11-20T05:00:02.439Z,8.40
2022-11-20T05:05:04.111Z,8.73
2022-11-20T05:10:05.589Z,7.20
2022-11-20T05:15:06.987Z,7.72
2022-11-20T05:20:08.610Z,7.07
2022-11-20T05:25:09.839Z,6.67
2022-11-20T05:30:11.359Z,7.05
2022-11-20T05:35:12.631Z,6.33
2022-11-20T05:40:14.091Z,6.30
2022-11-20T05:45:15.415Z,5.30
2022-11-20T05:50:16.769Z,8.43
2022-11-20T05:55:18.050Z,7.25
2022-11-20T06:00:19.288Z,5.57
2022-11-20T06:05:20.547Z,5.38
2022-11-20T06:10:21.824Z,5.20
2022-11-20T06:15:23.063Z,5.77
2022-11-20T06:20:24.327Z,5.72
2022-11-20T06:25:25.629Z,7.60
2022-11-20T06:30:26.870Z,5.10
2022-11-20T06:35:28.153Z,4.75
2022-11-20T06:40:29.389Z,6.03
2022-11-20T06:45:30.655Z,5.75
2022-11-20T06:50:31.933Z,5.00
2022-11-20T06:55:33.288Z,4.72
2022-11-20T07:00:34.636Z,6.82
2022-11-20T07:05:36.452Z,4.50
2022-11-20T07:10:37.769Z,6.03
2022-11-20T07:15:39.028Z,5.37
2022-11-20T07:20:40.313Z,5.40
2022-11-20T07:25:41.617Z,6.03
2022-11-20T07:30:42.850Z,7.03
2022-11-20T07:35:44.119Z,6.15
2022-11-20T07:40:45.362Z,5.33
2022-11-20T07:45:46.663Z,5.40
2022-11-20T07:50:47.950Z,4.25
2022-11-20T07:55:49.396Z,5.50
2022-11-20T08:00:50.757Z,7.07
2022-11-20T08:05:52.071Z,5.37
2022-11-20T08:10:53.358Z,4.30
2022-11-20T08:15:54.648Z,5.53
2022-11-20T08:20:55.981Z,6.30
2022-11-20T08:25:57.282Z,4.97
2022-11-20T08:30:59.711Z,6.17
2022-11-20T08:36:01.922Z,6.30
2022-11-20T08:41:22.706Z,5.60
2022-11-20T08:46:25.686Z,4.87
2022-11-20T08:51:27.112Z,6.70
2022-11-20T08:56:28.428Z,6.27
2022-11-20T09:01:30.557Z,6.20
2022-11-20T09:06:32.006Z,6.25
2022-11-20T09:11:33.499Z,13.27
2022-11-20T09:16:34.778Z,6.45
2022-11-20T09:21:36.050Z,7.33
2022-11-20T09:26:37.311Z,7.43
2022-11-20T09:31:38.699Z,7.32
2022-11-20T09:36:39.973Z,8.33
2022-11-20T09:41:44.123Z,6.40
2022-11-20T09:46:49.954Z,6.03
2022-11-20T09:51:59.255Z,7.82
2022-11-20T09:57:01.696Z,8.02
2022-11-20T10:02:09.351Z,10.77
2022-11-20T10:07:32.627Z,8.35
2022-11-20T10:12:51.775Z,8.43
2022-11-20T10:17:58.978Z,8.35
2022-11-20T10:23:03.261Z,9.48
2022-11-20T10:28:04.530Z,8.00
2022-11-20T10:33:09.834Z,9.27
2022-11-20T10:38:15.792Z,7.07
2022-11-20T10:43:18.601Z,8.35
2022-11-20T10:48:26.898Z,10.15
2022-11-20T10:53:47.209Z,6.63
2022-11-20T10:59:11.430Z,8.23
2022-11-20T11:04:36.394Z,7.90
2022-11-20T11:09:40.754Z,9.40
2022-11-20T11:14:49.302Z,10.18
2022-11-20T11:20:00.495Z,7.63
2022-11-20T11:25:01.907Z,6.50
2022-11-20T11:30:14.163Z,10.50
2022-11-20T11:35:33.712Z,9.25
2022-11-20T11:40:37.059Z,6.88
2022-11-20T11:45:38.299Z,7.43
2022-11-20T11:50:48.945Z,7.70
2022-11-20T11:56:10.712Z,8.73
2022-11-20T12:01:31.483Z,7.45
2022-11-20T12:06:35.507Z,8.38
2022-11-20T12:11:56.614Z,5.37
2022-11-20T12:16:58.563Z,9.73
2022-11-20T12:22:11.933Z,7.80
2022-11-20T12:27:32.073Z,5.38
2022-11-20T12:32:39.046Z,6.45
2022-11-20T12:37:53.198Z,7.63
2022-11-20T12:43:33.484Z,7.35
2022-11-20T12:48:34.757Z,5.87
2022-11-20T12:53:38.882Z,8.43
2022-11-20T12:58:50.195Z,8.13
2022-11-20T13:03:54.332Z,5.10
2022-11-20T13:08:56.912Z,6.88
2022-11-20T13:14:00.971Z,10.17
2022-11-20T13:19:03.499Z,6.70
2022-11-20T13:24:07.824Z,5.55
2022-11-20T13:29:12.002Z,4.93
2022-11-20T13:34:15.487Z,5.55
2022-11-20T13:39:25.240Z,6.67
2022-11-20T13:44:40.042Z,12.50
2022-11-20T13:49:45.916Z,6.10
2022-11-20T13:54:52.551Z,6.00
2022-11-20T14:00:12.472Z,5.18
2022-11-20T14:05:23.665Z,6.20
2022-11-20T14:10:31.316Z,6.70
2022-11-20T14:15:34.251Z,5.07
2022-11-20T14:20:35.530Z,6.40
2022-11-20T14:25:37.219Z,5.68
2022-11-20T14:30:45.587Z,7.23
2022-11-20T14:35:48.839Z,7.10
2022-11-20T14:40:50.207Z,5.32
2022-11-20T14:46:02.263Z,4.80
2022-11-20T14:51:03.502Z,6.45
2022-11-20T14:56:04.880Z,6.73
2022-11-20T15:01:07.425Z,7.05
2022-11-20T15:06:11.530Z,5.10
2022-11-20T15:11:19.333Z,7.07
2022-11-20T15:16:21.837Z,6.03
2022-11-20T15:21:23.354Z,7.80
2022-11-20T15:26:26.469Z,7.28
2022-11-20T15:31:27.723Z,5.80
2022-11-20T15:36:29.018Z,5.10
2022-11-20T15:41:30.326Z,7.10
2022-11-20T15:46:35.583Z,5.43
2022-11-20T15:51:38.276Z,4.35
2022-11-20T15:56:39.676Z,6.25
2022-11-20T16:01:41.233Z,5.50
2022-11-20T16:06:42.506Z,7.57
2022-11-20T16:11:43.728Z,6.40
2022-11-20T16:16:44.992Z,5.30
2022-11-20T16:21:46.297Z,7.70
2022-11-20T16:26:47.553Z,7.07
2022-11-20T16:31:48.838Z,7.45
2022-11-20T16:36:50.119Z,14.30
2022-11-20T16:41:51.394Z,8.82
2022-11-20T16:46:52.714Z,9.60
2022-11-20T16:51:53.960Z,9.20
2022-11-20T16:56:55.256Z,7.20
2022-11-20T17:01:56.540Z,10.30
2022-11-20T17:06:57.972Z,5.82
2022-11-20T17:11:59.367Z,7.97
2022-11-20T17:17:00.687Z,6.57
2022-11-20T17:22:01.993Z,9.70
2022-11-20T17:27:03.291Z,6.60
2022-11-20T17:32:04.614Z,11.70
2022-11-20T17:37:05.942Z,7.07
2022-11-20T17:42:26.149Z,7.70
2022-11-20T17:47:27.413Z,6.30
2022-11-20T17:52:28.716Z,6.47
2022-11-20T17:57:48.619Z,6.32
2022-11-20T18:02:49.883Z,7.05
2022-11-20T18:07:52.366Z,9.53
2022-11-20T18:12:54.336Z,4.15
2022-11-20T18:17:55.863Z,8.40
2022-11-20T18:22:57.301Z,6.03
2022-11-20T18:27:58.589Z,6.88
2022-11-20T18:32:59.929Z,6.60
2022-11-20T18:38:01.392Z,6.88
2022-11-20T18:43:21.763Z,4.33
2022-11-20T18:48:23.100Z,4.78
2022-11-20T18:53:24.386Z,9.55
2022-11-20T18:58:27.819Z,6.22
2022-11-20T19:03:29.118Z,7.10
2022-11-20T19:08:30.398Z,8.23
2022-11-20T19:13:32.417Z,11.70
2022-11-20T19:18:33.731Z,8.55
2022-11-20T19:23:35.142Z,7.17
2022-11-20T19:28:36.963Z,6.03
2022-11-20T19:33:38.183Z,6.17
2022-11-20T19:38:43.669Z,7.80
2022-11-20T19:43:49.783Z,5.18
2022-11-20T19:48:51.261Z,5.43
2022-11-20T19:53:52.951Z,5.13
2022-11-20T19:58:54.755Z,7.00
2022-11-20T20:03:57.601Z,5.22
2022-11-20T20:09:00.265Z,6.43
2022-11-20T20:14:02.469Z,6.70
2022-11-20T20:19:04.453Z,5.07
2022-11-20T20:24:06.051Z,5.93
2022-11-20T20:29:07.378Z,6.82
2022-11-20T20:34:08.750Z,4.97
2022-11-20T20:39:10.699Z,4.93
2022-11-20T20:44:30.563Z,5.10
2022-11-20T20:49:33.454Z,5.60
2022-11-20T20:54:34.772Z,5.32
2022-11-20T20:59:36.010Z,5.47
2022-11-20T21:04:37.278Z,4.68
2022-11-20T21:09:38.567Z,6.15
2022-11-20T21:14:39.863Z,4.53
2022-11-20T21:19:41.124Z,5.32
2022-11-20T21:24:42.903Z,6.93
2022-11-20T21:29:44.123Z,5.97
2022-11-20T21:34:45.511Z,5.20
2022-11-20T21:39:51.790Z,4.27
2022-11-20T21:44:53.024Z,4.15
2022-11-20T21:49:54.258Z,5.68
2022-11-20T21:54:55.620Z,4.03
2022-11-20T21:59:56.828Z,3.65
2022-11-20T22:04:58.101Z,5.73
2022-11-20T22:09:59.345Z,3.50
2022-11-20T22:15:00.587Z,4.72
2022-11-20T22:20:01.852Z,5.38
2022-11-20T22:25:03.187Z,7.43
2022-11-20T22:30:04.677Z,5.40
2022-11-20T22:35:06.018Z,4.40
2022-11-20T22:40:07.742Z,3.88
2022-11-20T22:45:09.285Z,4.38
2022-11-20T22:50:10.559Z,7.97
2022-11-20T22:55:16.063Z,4.77
2022-11-20T23:00:17.951Z,5.35
2022-11-20T23:05:19.209Z,3.05
2022-11-20T23:10:20.491Z,6.07
2022-11-20T23:15:21.708Z,4.32
2022-11-20T23:20:23.052Z,4.90
2022-11-20T23:25:24.359Z,4.53
2022-11-20T23:30:25.693Z,3.70
2022-11-20T23:35:26.938Z,4.72
2022-11-20T23:40:28.207Z,5.07
2022-11-20T23:45:29.548Z,7.20
2022-11-20T23:50:30.865Z,3.65
2022-11-20T23:55:32.271Z,3.35
